Extended Streamflow Prediction
Issued by NWS Lower Mississippi RFC

Current Version |  Previous Version |  Graphics & Text |  Print | Product List |  Glossary On
Versions: 1 2 3 4 5 6 7 8 9 10 11 12 13 14 15 16 17 18 19 20 21 22 23 24 25 26 27 28 29 30 31 32 33 34 35 36 37 38 39 40 41 42 43 44 45 46 47 48 49 50
252
FGUS64 KORN 221420
ESPORN

EXTENDED STREAMFLOW PREDICTION
NATIONAL WEATHER SERVICE RIVER FORECAST CENTER, SLIDELL, LA
1417 PM GMT SAT JUN 22 2024

   DATE   CPGM7 CIRI2 HKMK2 NMDM7 TPTM7 CRTM7 OSGA4 MEMT1 MHOM6 HEEA4
06-23-24   25.2  20.8  15.0  11.7  16.4  14.7   7.3   7.6   6.6  15.1
06-24-24   25.3  21.4  15.0  11.3  15.5  14.0   7.2   7.4   6.3  14.8
06-25-24   25.6  21.5  15.2  11.5  15.8  13.6   7.1   7.3   6.1  14.6
06-26-24   25.8  21.6  15.2  11.5  15.8  13.8   6.9   7.2   6.0  14.4
06-27-24   25.7  21.5  15.1  11.6  15.9  13.8   6.8   7.0   5.8  14.3
06-28-24   25.5  21.3  15.1  11.6  15.9  13.9   6.8   7.0   5.8  14.2
06-29-24   25.3  21.1  14.9  11.4  15.7  13.9   6.7   7.0   5.8  14.2
06-30-24   25.4  21.1  14.8  11.3  15.5  13.7   6.6   6.9   5.8  14.2
07-01-24   26.2  21.4  15.0  11.4  15.5  13.6   6.6   6.8   5.8  14.2
07-02-24   27.4  22.2  15.7  11.9  15.8  13.7   6.6   6.8   5.8  14.2
07-03-24   28.2  23.2  16.6  12.8  16.5  14.2   6.8   6.9   5.9  14.3
07-04-24   29.2  24.2  17.6  13.7  17.4  15.0   7.6   7.4   6.3  14.5
07-05-24   30.1  25.0  18.4  14.6  18.3  15.8   8.5   8.2   7.0  14.9
07-06-24   31.0  26.0  19.3  15.5  19.1  16.6   9.5   9.1   7.8  15.7
07-07-24   31.7  26.6  19.9  16.3  19.9  17.3  10.3  10.0   8.7  16.5
07-08-24   32.0  27.1  20.4  16.8  20.6  18.0  11.1  10.8   9.4  17.2
07-09-24   31.9  27.0  20.5  17.0  21.0  18.5  11.8  11.5  10.2  17.8
07-10-24   31.0  26.5  20.3  16.8  21.0  18.5  12.0  12.0  10.8  18.5
07-11-24   29.3  25.4  19.4  16.0  20.5  18.1  11.9  12.0  11.0  19.0
07-12-24   28.0  24.3  18.4  14.8  19.4  17.4  11.2  11.6  10.9  19.0
07-13-24   27.0  23.4  17.7  13.9  18.5  16.6  10.4  10.9  10.4  18.6
07-14-24   26.2  22.7  17.1  13.2  17.7  15.9   9.7  10.1   9.7  18.1
07-15-24   25.8  22.1  16.5  12.6  17.0  15.3   9.0   9.5   9.0  17.6
07-16-24   25.4  21.5  16.1  12.0  16.5  14.7   8.5   8.9   8.4  17.1
07-17-24   25.0  21.0  15.7  11.5  16.0  14.2   8.0   8.5   8.0  16.6
07-18-24   24.6  20.6  15.3  11.1  15.6  13.8   7.6   8.1   7.6  16.1
07-19-24   24.3  20.2  14.9  10.8  15.2  13.4   7.3   7.8   7.3  15.8
07-20-24   24.0  19.7  14.5  10.5  15.0  13.0   7.0   7.5   7.0  15.5

   DATE   ARSA4 GEEM6 VCKM6 NTZM6 RRLL1 BTRL1 DONL1 RRVL1 NORL1
06-23-24   15.2  26.8  24.7  35.4  40.4  25.0  17.1  12.8   9.4
06-24-24   14.9  26.3  24.1  34.7  39.4  23.7  16.0  12.1   8.8
06-25-24   14.6  26.1  23.6  34.2  38.9  23.0  15.4  11.5   8.3
06-26-24   14.5  26.0  23.3  33.7  38.4  22.5  15.0  11.2   8.0
06-27-24   14.4  25.9  23.1  33.4  37.9  22.0  14.7  10.9   7.8
06-28-24   14.3  25.8  22.8  33.2  37.7  21.7  14.4  10.7   7.7
06-29-24   14.3  25.8  22.6  33.0  37.5  21.5  14.2  10.6   7.5
06-30-24   14.3  25.8  22.4  32.8  37.2  21.3  14.1  10.5   7.5
07-01-24   14.4  25.8  22.5  32.6  37.0  21.1  14.0  10.4   7.4
07-02-24   14.4  25.9  22.6  32.7  36.9  20.9  13.8  10.3   7.3
07-03-24   14.4  25.9  22.7  32.8  37.0  20.9  13.7  10.2   7.3
07-04-24   14.5  26.0  22.9  32.8  37.0  20.9  13.8  10.2   7.2
07-05-24   14.6  26.1  23.3  33.0  37.1  21.0  13.8  10.2   7.3
07-06-24   15.0  26.3  23.8  33.4  37.3  21.1  13.9  10.3   7.3
07-07-24   15.6  26.8  24.2  33.8  37.7  21.4  14.0  10.3   7.3
07-08-24   16.1  27.3  24.6  34.3  38.1  21.7  14.2  10.5   7.4
07-09-24   16.6  27.9  25.1  34.7  38.5  22.1  14.5  10.7   7.5
07-10-24   17.1  28.4  25.5  35.1  38.9  22.5  14.8  10.9   7.6
07-11-24   17.6  28.8  26.0  35.5  39.3  22.9  15.1  11.1   7.8
07-12-24   18.0  29.3  26.4  36.0  39.7  23.2  15.3  11.3   7.9
07-13-24   18.0  29.5  26.8  36.4  40.1  23.6  15.6  11.4   8.0
07-14-24   17.8  29.4  27.0  36.7  40.5  23.9  15.8  11.6   8.2
07-15-24   17.4  29.1  27.0  37.0  40.8  24.1  16.0  11.8   8.3
07-16-24   17.1  28.8  26.7  36.8  41.0  24.5  16.2  11.9   8.4
07-17-24   16.7  28.4  26.4  36.5  40.8  24.6  16.4  12.0   8.4
07-18-24   16.4  28.1  26.1  36.2  40.6  24.4  16.4  11.9   8.4
07-19-24   16.2  27.8  25.8  35.8  40.3  24.0  16.2  11.9   8.4
07-20-24   16.0  27.5  25.5  35.5  40.0  23.6  15.9  11.8   8.3

NOTE: STAGE FORECASTS ARE BASED ON FUTURE RAINFALL COVERING
THE NEXT 48 HOURS.

END ORN


$$